createdAt,value
2022-10-19T01:28:41.277Z,100.00
2022-10-19T04:54:22.949Z,100.00
2022-10-19T04:56:29.280Z,100.00
2022-10-19T04:59:18.626Z,100.00
2022-10-19T05:02:04.370Z,100.00
2022-10-19T05:04:52.119Z,100.00
2022-10-19T05:07:49.400Z,100.00
2022-10-19T05:10:47.669Z,100.00
2022-10-19T05:13:35.500Z,100.00
2022-10-19T05:16:22.835Z,100.00
2022-10-19T05:19:15.413Z,100.00
2022-10-19T05:22:14.137Z,100.00
2022-10-19T05:24:59.693Z,100.00
2022-10-19T05:27:45.813Z,100.00
2022-10-19T05:30:39.947Z,100.00
2022-10-19T05:33:34.186Z,100.00
2022-10-19T05:36:27.862Z,100.00
2022-10-19T05:39:17.980Z,99.89
2022-10-19T05:46:18.300Z,95.85
2022-10-19T05:49:05.225Z,94.31
2022-10-19T05:51:53.205Z,94.93
2022-10-19T05:54:43.522Z,97.84
2022-10-19T05:57:38.107Z,94.11
2022-10-19T06:00:27.427Z,93.94
2022-10-19T06:03:16.603Z,94.87
2022-10-19T06:06:09.241Z,94.55
2022-10-19T06:09:06.579Z,94.38
2022-10-19T06:11:55.756Z,94.96
2022-10-19T06:14:51.868Z,94.91
2022-10-19T06:17:41.240Z,94.31
2022-10-19T06:20:30.528Z,96.48
2022-10-19T06:23:23.745Z,99.22
2022-10-19T06:26:12.002Z,95.78
2022-10-19T06:29:00.428Z,96.94
2022-10-19T06:31:46.596Z,98.35
2022-10-19T06:34:32.144Z,95.60
2022-10-19T06:37:18.071Z,97.17
2022-10-19T06:40:07.108Z,96.62
2022-10-19T06:42:55.427Z,96.24
2022-10-19T06:45:41.172Z,94.13
2022-10-19T06:48:26.665Z,93.40
2022-10-19T06:51:13.628Z,96.08
2022-10-19T06:53:59.026Z,97.15
2022-10-19T06:56:44.886Z,95.29
2022-10-19T06:59:30.322Z,93.66
2022-10-19T07:02:15.777Z,91.39
2022-10-19T07:05:04.674Z,89.62
2022-10-19T07:07:52.600Z,83.30
2022-10-19T07:10:38.059Z,77.43
2022-10-19T07:13:24.041Z,77.29
2022-10-19T07:16:20.799Z,72.94
2022-10-19T07:19:06.822Z,68.45
2022-10-19T07:21:52.862Z,65.50
2022-10-19T07:24:38.592Z,62.17
2022-10-19T07:27:26.470Z,60.49
2022-10-19T07:30:11.955Z,61.33
2022-10-19T07:32:59.460Z,60.53
2022-10-19T07:35:45.936Z,58.05
2022-10-19T07:38:32.177Z,54.63
2022-10-19T07:41:19.953Z,56.92
2022-10-19T07:44:05.920Z,53.11
2022-10-19T07:46:51.657Z,56.23
2022-10-19T07:49:37.333Z,57.19
2022-10-19T07:52:22.880Z,55.95
2022-10-19T07:55:08.690Z,53.91
2022-10-19T07:57:55.603Z,51.30
2022-10-19T08:00:41.151Z,50.84
2022-10-19T08:06:32.640Z,53.29
2022-10-19T08:09:39.930Z,53.92
2022-10-19T08:12:23.478Z,52.43
2022-10-19T08:15:09.381Z,50.16
2022-10-19T08:17:55.029Z,50.23
2022-10-19T08:20:41.819Z,51.49
2022-10-19T08:23:27.457Z,50.23
2022-10-19T08:26:12.779Z,48.65
2022-10-19T08:51:04.223Z,59.08
2022-10-19T08:53:57.113Z,55.50
2022-10-19T09:04:53.356Z,47.03
2022-10-19T09:07:45.716Z,48.68
2022-10-19T09:10:37.221Z,51.40
2022-10-19T09:13:29.237Z,49.02
2022-10-19T09:16:23.374Z,46.12
2022-10-19T09:19:26.279Z,42.37
2022-10-19T09:22:29.373Z,41.09
2022-10-19T09:25:20.056Z,41.49
2022-10-19T09:28:38.815Z,39.47
2022-10-19T09:31:31.861Z,44.57
2022-10-19T09:34:29.441Z,51.06
2022-10-19T09:37:23.311Z,54.34
2022-10-19T09:40:20.058Z,61.07
2022-10-19T09:43:20.427Z,59.03
2022-10-19T09:46:20.122Z,57.61
2022-10-19T09:49:05.917Z,61.00
2022-10-19T09:51:52.598Z,60.13
2022-10-19T09:54:39.194Z,62.92
2022-10-19T09:57:24.586Z,65.19
2022-10-19T11:24:59.021Z,52.33
2022-10-19T11:27:59.750Z,56.13
2022-10-19T11:35:53.789Z,42.36
2022-10-19T12:22:24.127Z,31.79
2022-10-19T12:52:50.519Z,42.08
2022-10-19T12:55:46.800Z,47.50
2022-10-19T13:33:49.286Z,31.09
2022-10-19T14:02:50.837Z,48.64
2022-10-19T14:05:56.165Z,49.81
2022-10-19T14:09:47.332Z,51.94
2022-10-19T14:19:53.995Z,54.22
2022-10-19T14:23:14.030Z,54.70
2022-10-19T14:26:17.374Z,56.10
2022-10-19T14:33:14.112Z,58.51
2022-10-19T14:36:19.037Z,59.27
2022-10-19T14:42:37.323Z,60.81
2022-10-19T14:49:02.312Z,64.38
2022-10-19T14:51:59.538Z,65.47
2022-10-19T14:54:56.972Z,67.77
2022-10-19T15:11:55.145Z,76.37
2022-10-19T15:21:42.820Z,76.20
2022-10-19T15:24:51.350Z,75.22
2022-10-19T15:27:50.208Z,76.69
2022-10-19T15:30:46.328Z,80.01
2022-10-19T15:34:04.220Z,78.91
2022-10-19T15:37:48.794Z,78.23
2022-10-19T15:41:13.968Z,81.00
2022-10-19T15:45:07.391Z,80.90
2022-10-19T15:59:02.472Z,81.64
